createdAt,value
2022-11-28T00:01:44.541Z,5.60
2022-11-28T00:04:13.926Z,5.50
2022-11-28T00:06:46.767Z,5.50
2022-11-28T00:11:46.135Z,5.50
2022-11-28T00:14:15.880Z,5.40
2022-11-28T00:19:13.948Z,5.40
2022-11-28T00:26:42.291Z,5.30
2022-11-28T00:29:11.608Z,5.30
2022-11-28T00:31:43.944Z,5.20
2022-11-28T00:34:17.267Z,5.20
2022-11-28T00:36:47.895Z,5.20
2022-11-28T00:39:18.125Z,5.20
2022-11-28T00:56:41.008Z,5.30
2022-11-28T01:01:44.533Z,5.00
2022-11-28T01:04:16.039Z,5.30
2022-11-28T01:06:48.250Z,5.30
2022-11-28T01:09:23.494Z,5.20
2022-11-28T01:11:54.497Z,5.20
2022-11-28T01:14:25.196Z,5.20
2022-11-28T01:44:16.780Z,5.50
2022-11-28T01:49:20.591Z,5.50
2022-11-28T01:52:09.416Z,5.50
2022-11-28T01:54:40.181Z,5.50
2022-11-28T01:57:13.023Z,5.50
2022-11-28T01:59:49.544Z,5.50
2022-11-28T02:02:28.105Z,5.50
2022-11-28T02:13:12.042Z,5.30
2022-11-28T02:16:13.520Z,5.40
2022-11-28T02:19:28.727Z,5.10
2022-11-28T02:22:21.569Z,5.40
2022-11-28T02:25:08.772Z,5.10
2022-11-28T02:28:37.365Z,5.20
2022-11-28T02:34:30.801Z,5.20
2022-11-28T02:37:10.232Z,5.20
2022-11-28T02:39:57.956Z,5.20
2022-11-28T02:43:10.589Z,5.30
2022-11-28T02:45:55.260Z,5.10
2022-11-28T02:48:39.288Z,5.30
2022-11-28T02:51:49.400Z,5.10
2022-11-28T02:54:19.775Z,5.00
2022-11-28T02:56:54.162Z,5.40
2022-11-28T02:59:40.122Z,5.10
2022-11-28T03:02:29.675Z,5.10
2022-11-28T03:05:15.211Z,5.20
2022-11-28T03:08:01.327Z,5.20
2022-11-28T03:11:05.329Z,5.10
2022-11-28T03:13:54.732Z,5.10
2022-11-28T03:16:32.696Z,5.10
2022-11-28T03:19:19.087Z,5.10
2022-11-28T03:21:53.633Z,5.10
2022-11-28T03:24:32.828Z,5.10
2022-11-28T03:27:33.254Z,5.10
2022-11-28T03:30:35.354Z,5.10
2022-11-28T03:33:05.283Z,5.00
2022-11-28T03:35:39.863Z,5.00
2022-11-28T03:38:19.024Z,5.00
2022-11-28T03:40:51.555Z,5.00
2022-11-28T03:43:26.352Z,5.00
2022-11-28T03:46:00.224Z,5.00
2022-11-28T03:48:45.509Z,5.00
2022-11-28T03:54:26.875Z,5.10
2022-11-28T03:57:12.760Z,4.90
2022-11-28T03:59:49.281Z,5.50
2022-11-28T04:02:35.932Z,5.10
2022-11-28T04:05:12.967Z,4.70
2022-11-28T04:08:00.658Z,5.30
2022-11-28T04:10:47.235Z,5.10
2022-11-28T04:13:54.563Z,5.10
2022-11-28T04:16:56.444Z,5.10
2022-11-28T04:24:33.314Z,5.10
2022-11-28T04:27:14.844Z,5.10
2022-11-28T04:29:52.659Z,4.90
2022-11-28T04:32:22.683Z,5.10
2022-11-28T04:34:58.227Z,5.10
2022-11-28T04:37:29.365Z,5.20
2022-11-28T04:39:58.139Z,5.20
2022-11-28T04:42:38.903Z,5.10
2022-11-28T04:50:08.280Z,5.30
2022-11-28T04:55:28.348Z,5.40
2022-11-28T04:58:17.836Z,5.40
2022-11-28T05:05:47.676Z,5.40
2022-11-28T05:20:39.379Z,5.20
2022-11-28T06:15:37.801Z,5.80
2022-11-28T06:20:36.722Z,5.90
2022-11-28T06:55:15.679Z,5.80
2022-11-28T07:12:57.479Z,6.10
2022-11-28T07:15:28.536Z,5.90
2022-11-28T07:55:07.138Z,5.90
2022-11-28T09:09:32.891Z,6.10
2022-11-28T09:42:07.717Z,6.40
2022-11-28T09:44:59.587Z,6.40
2022-11-28T09:47:32.104Z,6.40
2022-11-28T09:50:20.855Z,6.40
2022-11-28T09:53:28.320Z,6.50
2022-11-28T09:56:01.677Z,6.60
2022-11-28T09:58:51.030Z,6.60
2022-11-28T10:01:53.179Z,7.20
2022-11-28T10:04:38.349Z,6.60
2022-11-28T10:07:15.428Z,6.20
2022-11-28T10:10:15.657Z,6.70
2022-11-28T10:13:01.739Z,6.80
2022-11-28T10:16:10.746Z,7.20
2022-11-28T10:18:52.282Z,6.50
2022-11-28T10:21:26.343Z,6.80
2022-11-28T10:24:13.395Z,7.00
2022-11-28T10:27:08.315Z,7.10
2022-11-28T10:30:09.546Z,7.20
2022-11-28T10:32:45.171Z,6.90
2022-11-28T10:35:28.837Z,7.40
2022-11-28T10:37:57.393Z,8.00
2022-11-28T10:40:46.488Z,7.10
2022-11-28T10:43:35.931Z,7.40
2022-11-28T10:46:32.066Z,7.80
2022-11-28T10:49:34.235Z,7.30
2022-11-28T10:52:19.423Z,7.20
2022-11-28T10:54:58.882Z,7.20
2022-11-28T10:57:37.428Z,7.10
2022-11-28T11:00:18.413Z,7.30
2022-11-28T11:02:54.892Z,7.60
2022-11-28T11:05:28.853Z,7.30
2022-11-28T11:08:30.297Z,7.10
2022-11-28T11:11:27.666Z,7.40
2022-11-28T11:14:07.000Z,7.40
2022-11-28T11:16:55.501Z,7.50
2022-11-28T11:19:41.729Z,7.50
2022-11-28T11:22:28.459Z,7.70
2022-11-28T11:25:20.221Z,7.50
2022-11-28T11:28:00.997Z,7.70
2022-11-28T11:33:03.360Z,7.60
2022-11-28T11:35:36.217Z,7.60
2022-11-28T11:38:37.531Z,7.70
2022-11-28T11:41:30.462Z,7.60
2022-11-28T11:44:26.731Z,7.50
2022-11-28T11:47:02.978Z,7.50
2022-11-28T11:49:43.726Z,7.60
2022-11-28T11:52:15.058Z,7.20
2022-11-28T11:55:14.619Z,7.60
2022-11-28T11:57:48.654Z,7.50
2022-11-28T12:00:22.182Z,7.90
2022-11-28T12:03:34.874Z,7.50
2022-11-28T12:06:15.726Z,7.60
2022-11-28T12:08:53.122Z,7.60
2022-11-28T12:13:58.927Z,7.60
2022-11-28T12:16:39.852Z,7.40
2022-11-28T12:19:35.407Z,7.30
2022-11-28T12:22:18.294Z,7.80
2022-11-28T12:25:10.688Z,7.60
2022-11-28T12:27:57.960Z,7.90
2022-11-28T12:30:53.762Z,7.80
2022-11-28T12:33:52.920Z,8.40
2022-11-28T12:36:36.073Z,7.60
2022-11-28T12:39:19.491Z,7.90
2022-11-28T12:42:28.430Z,7.80
2022-11-28T12:45:38.439Z,7.90
2022-11-28T12:49:02.077Z,8.00
2022-11-28T12:52:05.798Z,7.90
2022-11-28T12:55:01.762Z,7.90
2022-11-28T12:58:19.343Z,7.90
2022-11-28T13:01:16.621Z,7.70
2022-11-28T13:04:21.600Z,7.90
2022-11-28T13:07:59.548Z,8.00
2022-11-28T13:10:42.972Z,8.00
2022-11-28T13:13:20.437Z,8.10
2022-11-28T13:16:36.713Z,8.20
2022-11-28T13:19:39.514Z,7.80
2022-11-28T13:22:26.060Z,7.60
2022-11-28T13:28:01.892Z,8.20
2022-11-28T13:30:56.493Z,8.00
2022-11-28T13:36:03.278Z,8.30
2022-11-28T13:39:19.118Z,7.90
2022-11-28T13:42:36.508Z,8.10
2022-11-28T13:45:07.188Z,8.10
2022-11-28T13:47:38.396Z,8.10
2022-11-28T13:50:40.603Z,8.30
2022-11-28T13:53:10.502Z,7.90
2022-11-28T13:55:46.944Z,7.90
2022-11-28T13:58:22.923Z,8.30
2022-11-28T14:01:12.296Z,8.20
2022-11-28T14:04:08.334Z,7.90
2022-11-28T14:06:47.826Z,8.60
2022-11-28T14:09:52.288Z,8.40
2022-11-28T14:12:45.774Z,8.20
2022-11-28T14:18:59.463Z,8.10
2022-11-28T14:22:08.942Z,8.60
2022-11-28T14:25:06.501Z,8.00
2022-11-28T14:27:38.311Z,7.70
2022-11-28T14:30:07.562Z,8.10
2022-11-28T14:32:42.805Z,8.10
2022-11-28T14:36:02.630Z,8.00
2022-11-28T14:38:33.688Z,8.00
2022-11-28T14:41:11.741Z,8.10
2022-11-28T14:43:46.294Z,8.00
2022-11-28T14:46:25.669Z,8.10
2022-11-28T14:48:59.537Z,7.80
2022-11-28T14:51:48.653Z,7.90
2022-11-28T14:54:37.086Z,8.20
2022-11-28T14:57:53.724Z,7.90
2022-11-28T15:00:47.353Z,7.50
2022-11-28T15:03:40.303Z,7.90
2022-11-28T15:06:35.830Z,7.80
2022-11-28T15:09:30.277Z,7.80
2022-11-28T15:12:24.322Z,7.10
2022-11-28T15:14:58.244Z,7.70
2022-11-28T15:17:34.094Z,7.80
2022-11-28T15:20:22.244Z,7.80
2022-11-28T15:25:35.594Z,7.80
2022-11-28T15:28:19.228Z,7.80
2022-11-28T15:30:49.984Z,8.30
2022-11-28T15:36:13.189Z,7.80
2022-11-28T15:38:44.242Z,7.80
2022-11-28T15:43:46.607Z,7.90
2022-11-28T15:46:21.924Z,7.90
2022-11-28T15:48:53.058Z,7.90
2022-11-28T15:51:36.879Z,7.90
2022-11-28T15:54:27.418Z,7.50
2022-11-28T15:57:02.631Z,7.40
2022-11-28T15:59:31.454Z,7.90
2022-11-28T16:02:12.766Z,7.90
2022-11-28T16:07:18.964Z,7.80
2022-11-28T16:10:22.166Z,7.80
2022-11-28T16:15:21.765Z,7.80
2022-11-28T16:20:35.940Z,7.80
2022-11-28T16:23:20.659Z,7.70
2022-11-28T16:26:25.761Z,7.80
2022-11-28T16:29:09.164Z,7.80
2022-11-28T16:36:39.074Z,7.80
2022-11-28T16:42:20.555Z,7.70
2022-11-28T16:47:33.186Z,7.70
2022-11-28T16:50:18.663Z,7.80
2022-11-28T16:52:59.053Z,7.80
2022-11-28T16:55:30.263Z,7.80
2022-11-28T16:58:15.950Z,7.70
2022-11-28T17:01:01.468Z,7.80
2022-11-28T17:03:47.571Z,7.70
2022-11-28T17:06:34.255Z,7.70
2022-11-28T17:09:03.391Z,7.80
2022-11-28T17:11:37.542Z,7.80
2022-11-28T17:14:13.128Z,7.80
2022-11-28T17:16:44.455Z,7.80
2022-11-28T17:24:35.214Z,7.80
2022-11-28T17:32:02.114Z,7.50
2022-11-28T17:34:37.498Z,7.70
2022-11-28T17:40:36.681Z,7.70
2022-11-28T17:43:07.478Z,7.70
2022-11-28T17:45:36.927Z,7.70
2022-11-28T17:48:08.452Z,7.60
2022-11-28T18:18:05.022Z,7.40
2022-11-28T18:20:33.677Z,7.40
2022-11-28T18:30:30.828Z,7.30
2022-11-28T18:43:00.212Z,7.30
2022-11-28T18:50:28.548Z,7.20
2022-11-28T19:42:34.120Z,7.50
2022-11-28T19:47:30.566Z,7.60
2022-11-28T19:50:01.330Z,7.50
2022-11-28T20:14:51.653Z,7.20
2022-11-28T20:47:04.743Z,7.20
2022-11-28T21:27:06.436Z,7.30
2022-11-28T22:19:46.057Z,7.40
2022-11-28T22:32:08.212Z,7.20
2022-11-28T22:34:39.922Z,7.30
2022-11-28T22:37:08.225Z,7.30
2022-11-28T22:42:07.756Z,8.00
2022-11-28T22:59:28.152Z,6.90
2022-11-28T23:09:21.974Z,7.10
2022-11-28T23:11:50.358Z,6.90
2022-11-28T23:19:20.207Z,7.20
2022-11-28T23:21:50.611Z,7.20
2022-11-28T23:24:24.207Z,7.20
2022-11-28T23:36:48.365Z,7.30
2022-11-28T23:39:23.145Z,7.50
2022-11-28T23:41:52.495Z,7.20
2022-11-28T23:44:21.355Z,7.20
2022-11-28T23:46:49.941Z,7.70
2022-11-28T23:54:15.479Z,7.30
2022-11-28T23:59:13.688Z,7.30
